createdAt,value
2022-10-21T00:00:57.458Z,101238.90
2022-10-21T00:03:36.399Z,101237.39
2022-10-21T00:06:05.676Z,101231.23
2022-10-21T00:08:33.728Z,101229.31
2022-10-21T00:11:03.447Z,101225.12
2022-10-21T00:13:32.540Z,101222.07
2022-10-21T00:16:12.355Z,101222.67
2022-10-21T00:18:42.193Z,101218.48
2022-10-21T00:21:14.037Z,101213.41
2022-10-21T00:23:42.631Z,101207.21
2022-10-21T00:26:11.383Z,101209.95
2022-10-21T00:28:39.333Z,101214.04
2022-10-21T00:31:09.368Z,101218.94
2022-10-21T00:33:37.282Z,101220.35
2022-10-21T00:36:07.555Z,101215.76
2022-10-21T00:38:36.496Z,101209.04
2022-10-21T00:41:04.190Z,101204.55
2022-10-21T00:43:31.975Z,101199.28
2022-10-21T00:46:07.205Z,101192.64
2022-10-21T00:48:40.853Z,101200.44
2022-10-21T00:51:12.793Z,101205.48
2022-10-21T00:53:44.569Z,101199.64
2022-10-21T00:56:16.840Z,101199.27
2022-10-21T00:58:47.169Z,101199.30
2022-10-21T01:01:17.987Z,101194.94
2022-10-21T01:03:50.238Z,101193.46
2022-10-21T01:06:21.776Z,101200.26
2022-10-21T01:08:50.749Z,101196.40
2022-10-21T01:11:21.206Z,101196.35
2022-10-21T01:14:00.845Z,101190.98
2022-10-21T01:16:37.184Z,101196.10
2022-10-21T01:19:29.549Z,101200.60
2022-10-21T01:22:09.592Z,101204.06
2022-10-21T01:25:06.576Z,101199.83
2022-10-21T01:27:55.746Z,101196.92
2022-10-21T01:30:45.103Z,101193.59
2022-10-21T01:33:22.981Z,101183.40
2022-10-21T01:36:24.805Z,101180.27
2022-10-21T01:39:09.892Z,101179.55
2022-10-21T01:41:51.829Z,101169.02
2022-10-21T01:44:23.436Z,101164.08
2022-10-21T01:47:17.298Z,101161.63
2022-10-21T01:49:56.162Z,101157.83
2022-10-21T01:52:24.177Z,101157.60
2022-10-21T01:54:59.441Z,101148.13
2022-10-21T01:57:33.588Z,101142.11
2022-10-21T02:00:02.062Z,101138.95
2022-10-21T02:02:35.543Z,101137.55
2022-10-21T02:05:09.988Z,101135.67
2022-10-21T02:07:37.589Z,101131.96
2022-10-21T02:10:05.720Z,101124.83
2022-10-21T02:12:35.863Z,101119.65
2022-10-21T02:15:07.991Z,101111.44
2022-10-21T02:17:39.246Z,101112.16
2022-10-21T02:20:12.748Z,101112.80
2022-10-21T02:22:43.001Z,101105.85
2022-10-21T02:25:17.228Z,101101.35
2022-10-21T02:27:44.996Z,101088.98
2022-10-21T02:30:13.064Z,101078.33
2022-10-21T02:33:16.293Z,101077.91
2022-10-21T02:36:02.288Z,101086.00
2022-10-21T02:38:37.992Z,101081.25
2022-10-21T02:41:10.230Z,101085.08
2022-10-21T02:43:52.856Z,101093.10
2022-10-21T02:46:21.011Z,101092.19
2022-10-21T02:48:49.305Z,101090.30
2022-10-21T02:51:17.229Z,101083.08
2022-10-21T02:53:44.960Z,101073.70
2022-10-21T02:56:12.583Z,101076.96
2022-10-21T02:58:40.172Z,101074.30
2022-10-21T03:01:07.830Z,101062.61
2022-10-21T03:03:35.539Z,101065.32
2022-10-21T03:06:03.286Z,101066.35
2022-10-21T03:08:31.090Z,101061.38
2022-10-21T03:11:01.052Z,101067.30
2022-10-21T03:13:28.743Z,101060.09
2022-10-21T03:15:56.391Z,101051.44
2022-10-21T03:18:24.031Z,101050.48
2022-10-21T03:20:52.336Z,101046.42
2022-10-21T03:23:20.799Z,101044.56
2022-10-21T03:25:48.480Z,101038.65
2022-10-21T03:28:20.800Z,101026.30
2022-10-21T03:30:48.717Z,101031.95
2022-10-21T03:33:16.421Z,101028.16
2022-10-21T03:35:44.257Z,101021.11
2022-10-21T03:38:11.885Z,101021.05
2022-10-21T03:40:39.606Z,101016.98
2022-10-21T03:43:07.276Z,101018.70
2022-10-21T03:45:34.864Z,101028.27
2022-10-21T03:48:02.595Z,101018.97
2022-10-21T03:50:30.203Z,101021.02
2022-10-21T03:52:59.262Z,101026.22
2022-10-21T03:55:27.236Z,101027.46
2022-10-21T03:57:54.935Z,101026.73
2022-10-21T04:00:24.362Z,101022.75
2022-10-21T04:02:53.744Z,101020.48
2022-10-21T04:05:21.451Z,101018.71
2022-10-21T04:07:52.184Z,101011.65
2022-10-21T04:10:21.151Z,101008.52
2022-10-21T04:12:48.804Z,100999.77
2022-10-21T04:15:17.107Z,100993.90
2022-10-21T04:17:47.792Z,100989.29
2022-10-21T04:20:15.466Z,100992.30
2022-10-21T04:22:43.153Z,100993.20
2022-10-21T04:25:10.759Z,100985.09
2022-10-21T04:27:38.438Z,100974.71
2022-10-21T04:30:06.940Z,100970.69
2022-10-21T04:32:35.090Z,100971.33
2022-10-21T04:35:02.935Z,100970.54
2022-10-21T04:37:30.516Z,100969.55
2022-10-21T04:39:58.208Z,100971.79
2022-10-21T04:42:25.796Z,100968.19
2022-10-21T04:44:53.398Z,100965.38
2022-10-21T04:47:20.979Z,100965.09
2022-10-21T04:49:48.758Z,100967.41
2022-10-21T04:52:16.444Z,100960.42
2022-10-21T04:54:44.253Z,100955.79
2022-10-21T04:57:13.526Z,100953.10
2022-10-21T04:59:41.159Z,100952.44
2022-10-21T05:02:08.808Z,100957.24
2022-10-21T05:04:36.503Z,100955.86
2022-10-21T05:07:04.159Z,100946.70
2022-10-21T05:09:31.859Z,100942.01
2022-10-21T05:11:59.493Z,100934.30
2022-10-21T05:14:27.119Z,100923.77
2022-10-21T05:16:54.739Z,100918.48
2022-10-21T05:19:22.338Z,100915.32
2022-10-21T05:21:49.947Z,100913.48
2022-10-21T05:24:17.636Z,100910.62
2022-10-21T05:26:45.221Z,100910.80
2022-10-21T05:29:12.856Z,100900.47
2022-10-21T05:31:40.716Z,100903.62
2022-10-21T05:34:08.555Z,100908.30
2022-10-21T05:36:36.468Z,100904.21
2022-10-21T05:39:04.345Z,100902.25
2022-10-21T05:41:32.042Z,100904.36
2022-10-21T05:43:59.649Z,100900.45
2022-10-21T05:46:27.380Z,100897.45
2022-10-21T05:48:55.021Z,100894.72
2022-10-21T05:51:26.384Z,100902.68
2022-10-21T05:53:55.146Z,100900.96
2022-10-21T05:56:22.840Z,100896.73
2022-10-21T05:58:51.566Z,100892.05
2022-10-21T06:01:19.344Z,100898.30
2022-10-21T06:03:47.290Z,100900.45
2022-10-21T06:06:15.087Z,100902.52
2022-10-21T06:08:42.876Z,100903.17
2022-10-21T06:11:13.553Z,100900.11
2022-10-21T06:13:41.802Z,100909.98
2022-10-21T06:16:10.686Z,100913.23
2022-10-21T06:18:39.285Z,100913.28
2022-10-21T06:21:07.379Z,100909.90
2022-10-21T06:23:35.411Z,100910.69
2022-10-21T06:26:11.990Z,100909.38
2022-10-21T06:28:42.231Z,100903.10
2022-10-21T06:31:14.077Z,100897.54
2022-10-21T06:33:42.020Z,100898.20
2022-10-21T06:36:09.821Z,100905.27
2022-10-21T06:38:38.371Z,100913.98
2022-10-21T06:41:12.176Z,100913.91
2022-10-21T06:43:43.008Z,100912.52
2022-10-21T06:46:13.380Z,100911.72
2022-10-21T06:48:41.759Z,100919.41
2022-10-21T06:51:19.446Z,100914.58
2022-10-21T06:53:51.453Z,100918.30
2022-10-21T06:56:19.774Z,100918.44
2022-10-21T06:58:49.274Z,100918.32
2022-10-21T07:01:33.473Z,100922.86
2022-10-21T07:04:04.587Z,100928.00
2022-10-21T07:09:01.474Z,100918.80
2022-10-21T07:11:29.299Z,100916.69
2022-10-21T07:13:56.936Z,100908.48
2022-10-21T07:16:30.374Z,100896.92
2022-10-21T07:18:58.645Z,100890.10
2022-10-21T07:21:29.155Z,100885.56
2022-10-21T07:23:59.563Z,100880.41
2022-10-21T07:26:30.719Z,100881.35
2022-10-21T07:29:00.480Z,100879.41
2022-10-21T07:31:31.416Z,100876.59
2022-10-21T07:36:38.883Z,100879.40
2022-10-21T07:39:10.319Z,100873.24
2022-10-21T07:41:44.641Z,100874.58
2022-10-21T07:44:12.662Z,100869.85
2022-10-21T07:46:42.029Z,100863.20
2022-10-21T07:49:11.054Z,100871.26
2022-10-21T07:51:39.056Z,100867.60
2022-10-21T07:54:07.257Z,100863.75
2022-10-21T07:56:38.373Z,100861.35
2022-10-21T07:59:11.645Z,100853.36
2022-10-21T08:01:44.796Z,100856.92
2022-10-21T08:04:18.516Z,100851.19
2022-10-21T08:06:48.046Z,100850.73
2022-10-21T08:09:16.374Z,100847.59
2022-10-21T08:11:44.532Z,100842.73
2022-10-21T08:14:12.783Z,100847.17
2022-10-21T08:16:40.757Z,100842.77
2022-10-21T08:19:09.440Z,100839.96
2022-10-21T08:21:37.422Z,100835.33
2022-10-21T08:24:05.433Z,100831.48
2022-10-21T08:26:33.147Z,100834.66
2022-10-21T08:29:02.989Z,100838.61
2022-10-21T08:31:30.909Z,100834.72
2022-10-21T08:33:59.462Z,100832.90
2022-10-21T08:36:27.281Z,100828.76
2022-10-21T08:38:55.281Z,100830.33
2022-10-21T08:41:28.960Z,100816.33
2022-10-21T08:44:05.375Z,100813.35
2022-10-21T08:46:41.123Z,100806.45
2022-10-21T08:49:34.279Z,100800.59
2022-10-21T08:52:12.540Z,100805.77
2022-10-21T08:54:47.791Z,100801.04
2022-10-21T08:57:15.626Z,100800.13
2022-10-21T08:59:43.755Z,100799.56
2022-10-21T09:02:41.655Z,100789.12
2022-10-21T09:05:15.528Z,100784.80
2022-10-21T09:07:51.068Z,100779.58
2022-10-21T09:10:33.707Z,100777.52
2022-10-21T09:13:11.370Z,100770.70
2022-10-21T09:15:41.970Z,100765.67
2022-10-21T09:18:26.678Z,100761.77
2022-10-21T09:20:59.492Z,100758.50
2022-10-21T09:23:55.571Z,100754.81
2022-10-21T09:26:35.261Z,100753.36
2022-10-21T09:29:30.769Z,100756.97
2022-10-21T09:32:19.620Z,100755.72
2022-10-21T09:34:59.395Z,100749.38
2022-10-21T09:37:40.449Z,100746.83
2022-10-21T09:40:26.724Z,100742.63
2022-10-21T09:42:58.820Z,100732.34
2022-10-21T09:45:39.042Z,100734.48
2022-10-21T09:48:20.403Z,100736.83
2022-10-21T09:51:00.990Z,100731.33
2022-10-21T09:53:37.565Z,100727.98
2022-10-21T09:56:13.506Z,100731.41
2022-10-21T09:58:41.154Z,100727.77
2022-10-21T10:01:14.849Z,100730.88
2022-10-21T10:03:46.105Z,100727.33
2022-10-21T10:06:29.888Z,100719.50
2022-10-21T10:09:29.465Z,100712.20
2022-10-21T10:12:13.479Z,100710.27
2022-10-21T10:14:43.460Z,100702.04
2022-10-21T10:17:31.677Z,100696.78
2022-10-21T10:20:10.741Z,100698.14
2022-10-21T10:22:44.646Z,100696.78
2022-10-21T10:25:12.238Z,100688.37
2022-10-21T10:27:52.647Z,100689.02
2022-10-21T10:30:25.529Z,100681.92
2022-10-21T10:32:56.212Z,100682.85
2022-10-21T10:35:34.404Z,100681.86
2022-10-21T10:38:03.134Z,100672.10
2022-10-21T10:40:41.917Z,100666.50
2022-10-21T10:43:19.557Z,100664.54
2022-10-21T10:45:57.323Z,100660.32
2022-10-21T10:48:32.571Z,100655.27
2022-10-21T10:51:00.202Z,100651.53
2022-10-21T10:53:36.541Z,100652.80
2022-10-21T10:56:13.525Z,100648.50
2022-10-21T10:58:52.897Z,100650.96
2022-10-21T11:01:39.983Z,100637.56
2022-10-21T11:04:17.587Z,100622.36
2022-10-21T11:07:03.193Z,100622.19
2022-10-21T11:09:34.360Z,100624.37
2022-10-21T11:12:06.900Z,100621.77
2022-10-21T11:14:34.526Z,100614.40
2022-10-21T11:17:18.245Z,100605.67
2022-10-21T11:20:04.499Z,100608.78
2022-10-21T11:22:50.404Z,100610.34
2022-10-21T11:25:43.522Z,100604.62
2022-10-21T11:28:31.623Z,100600.84
2022-10-21T11:31:15.633Z,100598.75
2022-10-21T11:33:49.147Z,100589.52
2022-10-21T11:36:44.768Z,100581.12
2022-10-21T11:39:21.249Z,100580.05
2022-10-21T11:41:56.658Z,100579.02
2022-10-21T11:44:56.852Z,100578.58
2022-10-21T11:47:30.532Z,100575.46
2022-10-21T11:53:12.677Z,100573.73
2022-10-21T11:55:58.655Z,100566.02
2022-10-21T11:58:34.998Z,100564.63
2022-10-21T12:01:29.000Z,100568.60
2022-10-21T12:04:13.392Z,100572.00
2022-10-21T12:06:57.073Z,100568.56
2022-10-21T12:09:46.354Z,100568.30
2022-10-21T12:12:17.725Z,100565.66
2022-10-21T12:15:02.519Z,100557.37
2022-10-21T12:17:34.660Z,100549.16
2022-10-21T12:20:13.778Z,100552.69
2022-10-21T12:22:41.977Z,100551.40
2022-10-21T12:25:12.828Z,100553.13
2022-10-21T12:27:50.773Z,100552.17
2022-10-21T12:30:30.495Z,100548.11
2022-10-21T12:33:25.300Z,100530.73
2022-10-21T12:35:57.140Z,100520.43
2022-10-21T12:38:43.906Z,100518.69
2022-10-21T12:41:24.954Z,100516.27
2022-10-21T12:44:04.017Z,100509.55
2022-10-21T12:46:40.157Z,100507.33
2022-10-21T12:49:32.549Z,100496.77
2022-10-21T12:52:09.749Z,100491.98
2022-10-21T12:54:42.011Z,100502.44
2022-10-21T12:57:21.803Z,100506.80
2022-10-21T12:59:49.468Z,100509.71
2022-10-21T13:02:28.186Z,100505.95
2022-10-21T13:04:57.340Z,100504.48
2022-10-21T13:07:31.449Z,100504.45
2022-10-21T13:09:59.353Z,100512.40
2022-10-21T13:12:30.542Z,100516.92
2022-10-21T13:15:02.280Z,100515.54
2022-10-21T13:17:48.326Z,100508.94
2022-10-21T13:20:15.891Z,100501.79
2022-10-21T13:23:03.451Z,100501.73
2022-10-21T13:25:36.181Z,100498.98
2022-10-21T13:28:19.691Z,100496.11
2022-10-21T13:30:50.345Z,100493.93
2022-10-21T13:33:20.834Z,100496.98
2022-10-21T13:35:55.815Z,100490.25
2022-10-21T13:38:29.569Z,100483.05
2022-10-21T13:41:07.286Z,100483.77
2022-10-21T13:43:48.510Z,100484.55
2022-10-21T13:46:24.821Z,100477.38
2022-10-21T13:48:53.409Z,100471.70
2022-10-21T13:51:25.201Z,100466.91
2022-10-21T13:53:55.921Z,100460.61
2022-10-21T13:56:32.765Z,100460.42
2022-10-21T13:59:00.938Z,100461.84
2022-10-21T14:01:49.207Z,100466.73
2022-10-21T14:04:20.489Z,100458.07
2022-10-21T14:07:01.493Z,100445.46
2022-10-21T14:09:33.685Z,100442.80
2022-10-21T14:12:07.411Z,100435.73
2022-10-21T14:14:39.887Z,100431.01
2022-10-21T14:17:15.257Z,100426.45
2022-10-21T14:19:48.621Z,100424.02
2022-10-21T14:22:20.965Z,100426.48
2022-10-21T14:24:52.416Z,100422.20
2022-10-21T14:27:27.390Z,100423.60
2022-10-21T14:29:56.978Z,100426.40
2022-10-21T14:32:27.176Z,100433.69
2022-10-21T14:34:57.676Z,100427.58
2022-10-21T14:37:25.543Z,100427.41
2022-10-21T14:39:53.211Z,100428.58
2022-10-21T14:42:23.762Z,100433.37
2022-10-21T14:44:59.044Z,100435.58
2022-10-21T14:47:27.515Z,100438.77
2022-10-21T14:49:59.860Z,100432.58
2022-10-21T14:52:31.704Z,100429.27
2022-10-21T14:55:03.082Z,100427.66
2022-10-21T14:57:42.380Z,100429.70
2022-10-21T15:00:32.824Z,100425.91
2022-10-21T15:03:01.673Z,100425.11
2022-10-21T15:05:48.853Z,100426.30
2022-10-21T15:08:19.800Z,100434.30
2022-10-21T15:11:12.221Z,100427.91
2022-10-21T15:13:55.896Z,100426.20
2022-10-21T15:16:27.933Z,100431.12
2022-10-21T15:18:55.985Z,100434.36
2022-10-21T15:21:36.537Z,100436.38
2022-10-21T15:24:05.458Z,100429.05
2022-10-21T15:26:39.217Z,100428.86
2022-10-21T15:29:37.146Z,100428.91
2022-10-21T15:32:06.476Z,100423.20
2022-10-21T15:34:34.262Z,100409.25
2022-10-21T15:37:01.993Z,100399.27
2022-10-21T15:39:29.709Z,100392.02
2022-10-21T15:41:58.968Z,100388.29
2022-10-21T15:44:29.722Z,100384.30
2022-10-21T15:47:01.050Z,100381.55
2022-10-21T15:49:36.523Z,100385.15
2022-10-21T15:52:05.475Z,100387.83
2022-10-21T15:54:33.740Z,100388.40
2022-10-21T15:57:02.696Z,100389.26
2022-10-21T15:59:33.173Z,100390.15
2022-10-21T16:02:02.187Z,100400.34
2022-10-21T16:04:29.992Z,100405.98
2022-10-21T16:06:58.562Z,100409.29
2022-10-21T16:09:28.998Z,100408.84
2022-10-21T16:12:00.319Z,100405.25
2022-10-21T16:14:31.017Z,100398.34
2022-10-21T16:16:59.827Z,100390.52
2022-10-21T16:19:28.951Z,100402.76
2022-10-21T16:21:57.028Z,100408.27
2022-10-21T16:24:24.900Z,100401.00
2022-10-21T16:26:52.769Z,100400.45
2022-10-21T16:29:24.875Z,100393.59
2022-10-21T16:31:52.681Z,100397.23
2022-10-21T16:34:20.442Z,100399.02
2022-10-21T16:36:48.217Z,100397.45
2022-10-21T16:39:24.286Z,100392.98
2022-10-21T16:41:52.194Z,100400.88
2022-10-21T16:44:19.895Z,100406.48
2022-10-21T16:46:55.150Z,100413.48
2022-10-21T16:49:25.827Z,100412.46
2022-10-21T16:51:54.650Z,100409.60
2022-10-21T16:54:23.192Z,100410.02
2022-10-21T16:56:53.368Z,100410.80
2022-10-21T16:59:23.644Z,100414.48
2022-10-21T17:01:52.167Z,100418.00
2022-10-21T17:04:19.915Z,100416.98
2022-10-21T17:06:48.483Z,100410.20
2022-10-21T17:09:16.501Z,100410.89
2022-10-21T17:11:44.261Z,100406.88
2022-10-21T17:14:16.717Z,100402.33
2022-10-21T17:16:45.485Z,100407.59
2022-10-21T17:19:14.119Z,100410.16
2022-10-21T17:21:41.985Z,100399.32
2022-10-21T17:24:16.551Z,100395.14
2022-10-21T17:26:45.083Z,100396.48
2022-10-21T17:29:13.014Z,100388.96
2022-10-21T17:31:43.502Z,100396.10
2022-10-21T17:34:32.710Z,100383.40
2022-10-21T17:37:00.601Z,100382.25
2022-10-21T17:39:28.522Z,100376.30
2022-10-21T17:41:56.480Z,100369.07
2022-10-21T17:44:24.201Z,100365.77
2022-10-21T17:46:54.624Z,100360.43
2022-10-21T17:49:24.296Z,100358.71
2022-10-21T17:51:51.981Z,100349.81
2022-10-21T17:54:24.145Z,100350.48
2022-10-21T17:56:56.864Z,100346.36
2022-10-21T17:59:26.710Z,100348.05
2022-10-21T18:01:54.400Z,100343.02
2022-10-21T18:04:22.147Z,100341.92
2022-10-21T18:06:49.890Z,100337.41
2022-10-21T18:09:17.965Z,100333.74
2022-10-21T18:11:45.836Z,100334.52
2022-10-21T18:14:14.360Z,100331.98
2022-10-21T18:16:42.005Z,100329.17
2022-10-21T18:19:09.885Z,100325.21
2022-10-21T18:21:37.669Z,100324.39
2022-10-21T18:24:09.865Z,100323.39
2022-10-21T18:26:40.249Z,100318.77
2022-10-21T18:29:08.031Z,100319.16
2022-10-21T18:31:37.338Z,100314.31
2022-10-21T18:34:06.644Z,100315.73
2022-10-21T18:36:34.594Z,100314.75
2022-10-21T18:39:02.346Z,100314.26
2022-10-21T18:41:30.449Z,100313.62
2022-10-21T18:44:01.936Z,100311.03
2022-10-21T18:46:30.430Z,100309.92
2022-10-21T18:48:58.787Z,100304.34
2022-10-21T18:51:26.549Z,100303.55
2022-10-21T18:53:54.194Z,100299.87
2022-10-21T18:56:24.432Z,100299.77
2022-10-21T18:58:52.416Z,100295.96
2022-10-21T19:01:21.484Z,100289.79
2022-10-21T19:03:50.917Z,100290.96
2022-10-21T19:06:41.180Z,100287.80
2022-10-21T19:09:15.608Z,100284.54
2022-10-21T19:11:44.065Z,100280.87
2022-10-21T19:14:14.401Z,100284.25
2022-10-21T19:16:44.595Z,100283.05
2022-10-21T19:19:13.734Z,100277.41
2022-10-21T19:21:41.906Z,100274.80
2022-10-21T19:24:10.404Z,100276.15
2022-10-21T19:26:40.788Z,100272.17
2022-10-21T19:29:14.633Z,100274.81
2022-10-21T19:31:43.507Z,100268.93
2022-10-21T19:34:16.021Z,100271.69
2022-10-21T19:36:44.168Z,100270.61
2022-10-21T19:39:13.161Z,100272.45
2022-10-21T19:41:41.466Z,100271.36
2022-10-21T19:44:09.375Z,100272.81
2022-10-21T19:46:37.810Z,100273.19
2022-10-21T19:49:07.579Z,100269.52
2022-10-21T19:51:36.789Z,100266.64
2022-10-21T19:54:06.199Z,100267.27
2022-10-21T19:56:35.022Z,100266.77
2022-10-21T19:59:05.234Z,100260.47
2022-10-21T20:01:34.583Z,100258.21
2022-10-21T20:04:03.522Z,100256.11
2022-10-21T20:06:34.240Z,100257.17
2022-10-21T20:09:05.979Z,100258.10
2022-10-21T20:11:33.970Z,100254.08
2022-10-21T20:14:02.126Z,100254.54
2022-10-21T20:16:33.181Z,100260.02
2022-10-21T20:19:02.651Z,100258.50
2022-10-21T20:21:31.074Z,100259.61
2022-10-21T20:23:59.747Z,100259.95
2022-10-21T20:26:28.958Z,100254.70
2022-10-21T20:28:57.296Z,100257.51
2022-10-21T20:31:24.961Z,100260.52
2022-10-21T20:33:52.605Z,100260.85
2022-10-21T20:36:25.617Z,100257.96
2022-10-21T20:38:55.133Z,100256.48
2022-10-21T20:41:24.081Z,100254.24
2022-10-21T20:43:53.881Z,100254.54
2022-10-21T20:46:24.494Z,100254.95
2022-10-21T20:48:53.601Z,100254.75
2022-10-21T20:51:29.008Z,100253.89
2022-10-21T20:54:02.902Z,100250.35
2022-10-21T20:56:36.603Z,100245.31
2022-10-21T20:59:05.452Z,100249.08
2022-10-21T21:01:36.363Z,100250.48
2022-10-21T21:04:08.184Z,100246.98
2022-10-21T21:06:37.989Z,100242.05
2022-10-21T21:11:54.322Z,100250.42
2022-10-21T21:14:21.933Z,100249.61
2022-10-21T21:16:49.630Z,100248.60
2022-10-21T21:19:19.364Z,100243.94
2022-10-21T21:21:46.956Z,100246.89
2022-10-21T21:24:14.592Z,100245.08
2022-10-21T21:26:42.399Z,100235.90
2022-10-21T21:29:10.321Z,100241.73
2022-10-21T21:31:39.391Z,100240.56
2022-10-21T21:34:08.301Z,100245.23
2022-10-21T21:36:36.989Z,100246.69
2022-10-21T21:39:06.592Z,100239.63
2022-10-21T21:41:34.943Z,100237.03
2022-10-21T21:44:05.083Z,100230.81
2022-10-21T21:46:33.263Z,100225.07
2022-10-21T21:49:05.506Z,100233.55
2022-10-21T21:51:35.456Z,100234.40
2022-10-21T21:54:04.738Z,100229.29
2022-10-21T21:56:32.361Z,100222.31
2022-10-21T21:59:00.151Z,100225.29
2022-10-21T22:01:29.746Z,100230.37
2022-10-21T22:03:58.448Z,100225.00
2022-10-21T22:06:30.132Z,100228.30
2022-10-21T22:08:59.357Z,100229.98
2022-10-21T22:11:30.580Z,100230.91
2022-10-21T22:13:58.636Z,100226.86
2022-10-21T22:16:30.387Z,100226.69
2022-10-21T22:19:00.160Z,100221.79
2022-10-21T22:21:29.192Z,100222.27
2022-10-21T22:23:56.846Z,100218.86
2022-10-21T22:26:26.797Z,100213.98
2022-10-21T22:28:55.047Z,100217.34
2022-10-21T22:31:28.902Z,100218.22
2022-10-21T22:34:01.815Z,100214.65
2022-10-21T22:36:29.929Z,100213.39
2022-10-21T22:38:58.039Z,100207.68
2022-10-21T22:41:26.214Z,100208.70
2022-10-21T22:43:53.825Z,100207.59
2022-10-21T22:46:32.851Z,100209.69
2022-10-21T22:49:06.119Z,100213.03
2022-10-21T22:51:34.144Z,100210.75
2022-10-21T22:54:01.752Z,100211.36
2022-10-21T22:56:29.605Z,100209.92
2022-10-21T22:58:57.689Z,100208.61
2022-10-21T23:01:30.008Z,100213.73
2022-10-21T23:04:02.570Z,100218.05
2022-10-21T23:06:32.396Z,100217.46
2022-10-21T23:09:01.268Z,100218.38
2022-10-21T23:11:29.744Z,100215.98
2022-10-21T23:14:03.300Z,100213.30
2022-10-21T23:16:36.727Z,100208.46
2022-10-21T23:19:07.140Z,100201.89
2022-10-21T23:21:35.948Z,100193.34
2022-10-21T23:24:05.121Z,100197.41
2022-10-21T23:26:33.002Z,100202.65
2022-10-21T23:29:00.879Z,100199.39
2022-10-21T23:31:28.497Z,100189.70
2022-10-21T23:33:56.252Z,100192.48
2022-10-21T23:36:23.956Z,100179.86
2022-10-21T23:38:56.061Z,100179.59
2022-10-21T23:41:24.161Z,100175.05
2022-10-21T23:43:51.936Z,100179.16
2022-10-21T23:46:21.444Z,100180.80
2022-10-21T23:48:49.807Z,100175.06
2022-10-21T23:51:17.599Z,100173.69
2022-10-21T23:53:45.502Z,100172.80
2022-10-21T23:56:13.160Z,100175.11
2022-10-21T23:58:40.824Z,100172.13
